Time;durP1;ratioP1;P1;durP2;ratioP2;P2;SDS_P1;SDS_P2;PMS_P1;PMS_P2;Temp;Humidity;BMP_temperature;BMP_pressure;BME280_temperature;BME280_humidity;BME280_pressure;Samples;Min_cycle;Max_cycle;Signal;HPM_P1;HPM_P2
2023/10/31 00:01:10;;;;;;;12.75;6.47;;;;;;;;;;5013842;28;20487;-70
2023/10/31 00:03:36;;;;;;;13.23;7.15;;;;;;;;;;5014092;28;20029;-71
2023/10/31 00:06:01;;;;;;;9.30;5.78;;;;;;;;;;5014207;28;20518;-70
2023/10/31 00:08:27;;;;;;;13.95;5.45;;;;;;;;;;4996522;28;20071;-70
2023/10/31 00:10:52;;;;;;;10.25;5.93;;;;;;;;;;5013052;28;20109;-70
2023/10/31 00:13:17;;;;;;;14.50;6.68;;;;;;;;;;5013679;28;20018;-70
2023/10/31 00:15:42;;;;;;;18.10;7.40;;;;;;;;;;5013203;28;20034;-70
2023/10/31 00:18:08;;;;;;;13.73;6.65;;;;;;;;;;5013361;28;20113;-71
2023/10/31 00:20:33;;;;;;;18.05;7.03;;;;;;;;;;5013689;28;20037;-70
2023/10/31 00:22:58;;;;;;;11.88;6.03;;;;;;;;;;5013146;28;20029;-70
2023/10/31 00:25:23;;;;;;;12.80;7.03;;;;;;;;;;4996497;28;20116;-70
2023/10/31 00:27:49;;;;;;;12.82;6.47;;;;;;;;;;5013996;28;20029;-70
2023/10/31 00:30:15;;;;;;;11.23;5.68;;;;;;;;;;4996226;28;20152;-70
2023/10/31 00:32:40;;;;;;;8.98;5.55;;;;;;;;;;5012281;28;20034;-71
2023/10/31 00:35:05;;;;;;;14.07;6.97;;;;;;;;;;5013786;28;20395;-71
2023/10/31 00:37:31;;;;;;;15.07;6.88;;;;;;;;;;4995917;28;20037;-71
2023/10/31 00:39:56;;;;;;;16.10;6.85;;;;;;;;;;5012836;28;20030;-71
2023/10/31 00:42:21;;;;;;;17.50;8.10;;;;;;;;;;5013174;28;20076;-70
2023/10/31 00:44:47;;;;;;;11.60;5.70;;;;;;;;;;5013849;28;20406;-70
2023/10/31 00:47:12;;;;;;;11.02;5.93;;;;;;;;;;5013685;28;20034;-70
2023/10/31 00:49:37;;;;;;;12.65;7.10;;;;;;;;;;5012427;28;20014;-71
2023/10/31 00:52:03;;;;;;;9.73;5.93;;;;;;;;;;5013455;28;20547;-71
2023/10/31 00:54:28;;;;;;;11.00;6.28;;;;;;;;;;5012782;28;20026;-71
2023/10/31 00:56:53;;;;;;;10.88;6.32;;;;;;;;;;5013493;28;20107;-71
2023/10/31 00:59:19;;;;;;;12.70;6.65;;;;;;;;;;4995549;28;20022;-70
2023/10/31 01:01:44;;;;;;;10.35;5.70;;;;;;;;;;5012875;28;20533;-71
2023/10/31 01:04:10;;;;;;;14.30;6.60;;;;;;;;;;4995755;28;20032;-71
2023/10/31 01:06:41;;;;;;;18.55;6.75;;;;;;;;;;5012992;28;21260;-71
2023/10/31 01:09:06;;;;;;;13.57;6.45;;;;;;;;;;5013515;28;20022;-71
2023/10/31 01:11:31;;;;;;;15.35;7.00;;;;;;;;;;5013146;28;20049;-71
2023/10/31 01:13:56;;;;;;;13.93;6.55;;;;;;;;;;5012829;28;20109;-71
2023/10/31 01:16:22;;;;;;;14.75;6.95;;;;;;;;;;5012917;28;20076;-71
2023/10/31 01:18:47;;;;;;;14.10;6.25;;;;;;;;;;5013217;28;20022;-70
2023/10/31 01:21:12;;;;;;;13.30;6.97;;;;;;;;;;5013303;28;20026;-71
2023/10/31 01:23:37;;;;;;;15.23;6.88;;;;;;;;;;5011934;28;20018;-71
2023/10/31 01:26:03;;;;;;;16.75;7.28;;;;;;;;;;4995948;28;20025;-70
2023/10/31 01:28:28;;;;;;;11.35;6.85;;;;;;;;;;5016440;28;20018;-70
2023/10/31 01:30:53;;;;;;;14.15;6.57;;;;;;;;;;5016926;28;20029;-70
2023/10/31 01:33:19;;;;;;;12.52;6.35;;;;;;;;;;5016861;28;20048;-71
2023/10/31 01:35:44;;;;;;;12.80;5.80;;;;;;;;;;5016202;28;20080;-71
2023/10/31 01:38:09;;;;;;;15.38;6.97;;;;;;;;;;5016961;28;20025;-70
2023/10/31 01:40:34;;;;;;;9.93;5.25;;;;;;;;;;5016707;28;20057;-71
2023/10/31 01:43:00;;;;;;;13.57;6.80;;;;;;;;;;5017156;28;20056;-71
2023/10/31 01:45:25;;;;;;;13.90;6.68;;;;;;;;;;5016287;28;20060;-70
2023/10/31 01:47:50;;;;;;;16.58;7.97;;;;;;;;;;5016046;28;20053;-71
2023/10/31 01:50:17;;;;;;;15.60;7.25;;;;;;;;;;5015148;28;20514;-71
2023/10/31 01:52:43;;;;;;;16.80;8.02;;;;;;;;;;4992455;28;20554;-70
2023/10/31 01:55:08;;;;;;;20.52;8.45;;;;;;;;;;4999216;28;20038;-70
2023/10/31 01:57:34;;;;;;;15.45;8.00;;;;;;;;;;5015484;28;20502;-71
2023/10/31 01:59:59;;;;;;;16.15;8.60;;;;;;;;;;4998909;28;20034;-70
2023/10/31 02:02:25;;;;;;;19.40;8.30;;;;;;;;;;4998004;28;20030;-71
2023/10/31 02:04:51;;;;;;;17.45;8.02;;;;;;;;;;4998892;28;20091;-71
2023/10/31 02:07:16;;;;;;;19.02;9.05;;;;;;;;;;4998768;28;20029;-70
2023/10/31 02:10:02;;;;;;;24.80;8.15;;;;;;;;;;5016770;28;20050;-70
2023/10/31 02:12:37;;;;;;;19.23;8.43;;;;;;;;;;5014525;28;20037;-71
2023/10/31 02:15:03;;;;;;;19.40;9.13;;;;;;;;;;4988706;28;20030;-71
2023/10/31 02:17:29;;;;;;;22.25;8.93;;;;;;;;;;4995270;28;20070;-70
2023/10/31 02:19:54;;;;;;;21.98;9.48;;;;;;;;;;4995162;28;20065;-70
2023/10/31 02:22:20;;;;;;;17.67;7.43;;;;;;;;;;5008512;28;20028;-70
2023/10/31 02:24:45;;;;;;;19.90;8.02;;;;;;;;;;5015356;28;20026;-70
2023/10/31 02:27:10;;;;;;;17.70;9.10;;;;;;;;;;5015894;28;20022;-70
2023/10/31 02:29:35;;;;;;;20.10;8.73;;;;;;;;;;5016389;28;20084;-70
2023/10/31 02:32:01;;;;;;;18.77;7.72;;;;;;;;;;5016223;28;20530;-71
2023/10/31 02:34:26;;;;;;;22.33;8.82;;;;;;;;;;5010685;28;20475;-71
2023/10/31 02:36:52;;;;;;;20.20;9.15;;;;;;;;;;5015746;28;20022;-70
2023/10/31 02:39:17;;;;;;;19.05;8.55;;;;;;;;;;5004886;28;20053;-71
2023/10/31 02:41:43;;;;;;;21.95;9.68;;;;;;;;;;4998321;28;20068;-70
2023/10/31 02:44:08;;;;;;;19.33;8.77;;;;;;;;;;4995880;28;20018;-71
2023/10/31 02:46:37;;;;;;;25.70;8.60;;;;;;;;;;4996748;28;20026;-70
2023/10/31 02:49:02;;;;;;;20.25;8.63;;;;;;;;;;5014444;28;20050;-70
2023/10/31 02:51:28;;;;;;;21.23;9.02;;;;;;;;;;5015871;28;20116;-70
2023/10/31 02:53:53;;;;;;;15.60;7.88;;;;;;;;;;5015305;28;20030;-70
2023/10/31 02:56:19;;;;;;;22.92;9.52;;;;;;;;;;5015757;28;20387;-70
2023/10/31 02:58:44;;;;;;;18.83;7.80;;;;;;;;;;5015257;28;20105;-71
2023/10/31 03:01:09;;;;;;;17.23;8.85;;;;;;;;;;5015033;28;20026;-71
2023/10/31 03:03:35;;;;;;;18.77;8.55;;;;;;;;;;5015311;28;20026;-70
2023/10/31 03:06:00;;;;;;;18.33;9.18;;;;;;;;;;5015125;28;20026;-71
2023/10/31 03:08:25;;;;;;;20.08;9.10;;;;;;;;;;5015048;28;20058;-71
2023/10/31 03:10:51;;;;;;;20.95;7.85;;;;;;;;;;5014948;28;20200;-71
2023/10/31 03:13:17;;;;;;;15.20;7.68;;;;;;;;;;5009156;28;20100;-71
2023/10/31 03:15:43;;;;;;;13.35;5.88;;;;;;;;;;4994610;28;20030;-71
2023/10/31 03:18:09;;;;;;;14.25;6.10;;;;;;;;;;4994436;28;20029;-70
2023/10/31 03:20:34;;;;;;;11.68;4.88;;;;;;;;;;5012355;28;20546;-70
2023/10/31 03:22:59;;;;;;;11.75;4.18;;;;;;;;;;5014939;28;20022;-70
2023/10/31 03:25:24;;;;;;;7.82;4.25;;;;;;;;;;5013584;28;20025;-71
2023/10/31 03:27:50;;;;;;;8.60;4.18;;;;;;;;;;5014732;28;20605;-70
2023/10/31 03:30:15;;;;;;;11.15;4.43;;;;;;;;;;5014647;28;20021;-70
2023/10/31 03:32:40;;;;;;;10.48;3.97;;;;;;;;;;5014905;28;20105;-70
2023/10/31 03:35:06;;;;;;;7.88;3.20;;;;;;;;;;5014673;28;20018;-70
2023/10/31 03:37:31;;;;;;;7.32;2.95;;;;;;;;;;5010004;28;20030;-71
2023/10/31 03:39:56;;;;;;;8.27;2.83;;;;;;;;;;5014761;28;20514;-70
2023/10/31 03:42:22;;;;;;;3.88;2.17;;;;;;;;;;5014254;28;20383;-70
2023/10/31 03:44:47;;;;;;;5.75;2.10;;;;;;;;;;4999434;28;20069;-71
2023/10/31 03:47:12;;;;;;;4.85;3.05;;;;;;;;;;4994356;28;20022;-71
2023/10/31 03:49:39;;;;;;;6.30;2.25;;;;;;;;;;5010182;28;20486;-71
2023/10/31 03:52:05;;;;;;;6.10;2.63;;;;;;;;;;5013244;28;20064;-70
2023/10/31 03:54:30;;;;;;;7.78;3.13;;;;;;;;;;4996773;28;20446;-70
2023/10/31 03:56:55;;;;;;;10.27;3.83;;;;;;;;;;5012827;28;20026;-71
2023/10/31 03:59:20;;;;;;;7.65;3.30;;;;;;;;;;5014204;28;20034;-71
2023/10/31 04:01:46;;;;;;;8.02;3.50;;;;;;;;;;5012923;28;20368;-71
2023/10/31 04:04:11;;;;;;;8.82;4.05;;;;;;;;;;5013427;28;20034;-70
2023/10/31 04:06:39;;;;;;;10.27;3.95;;;;;;;;;;5014009;28;20489;-70
2023/10/31 04:09:05;;;;;;;9.85;4.18;;;;;;;;;;5006646;28;20025;-71
2023/10/31 04:11:30;;;;;;;8.82;3.70;;;;;;;;;;5013568;28;20091;-70
2023/10/31 04:13:55;;;;;;;6.72;3.33;;;;;;;;;;5010856;28;20029;-71
2023/10/31 04:16:21;;;;;;;8.35;3.35;;;;;;;;;;5014199;28;20493;-70
2023/10/31 04:18:46;;;;;;;7.05;3.50;;;;;;;;;;5013752;28;20026;-71
2023/10/31 04:21:11;;;;;;;5.60;3.30;;;;;;;;;;5013438;28;20030;-71
2023/10/31 04:23:36;;;;;;;7.82;3.50;;;;;;;;;;5013597;28;20025;-70
2023/10/31 04:26:02;;;;;;;4.60;3.10;;;;;;;;;;5014054;28;20125;-70
2023/10/31 04:28:27;;;;;;;8.98;2.97;;;;;;;;;;5013986;28;20109;-71
2023/10/31 04:30:52;;;;;;;5.88;2.75;;;;;;;;;;5013894;28;20022;-71
2023/10/31 04:33:18;;;;;;;6.32;2.50;;;;;;;;;;5012508;28;20140;-71
2023/10/31 04:35:43;;;;;;;5.28;2.45;;;;;;;;;;5011957;28;20430;-70
2023/10/31 04:38:08;;;;;;;4.97;2.38;;;;;;;;;;5013661;28;20056;-70
2023/10/31 04:40:34;;;;;;;5.90;2.53;;;;;;;;;;5013606;28;20057;-70
2023/10/31 04:42:59;;;;;;;3.95;2.33;;;;;;;;;;5013856;28;20483;-71
2023/10/31 04:45:24;;;;;;;6.75;2.47;;;;;;;;;;5013436;28;20030;-70
2023/10/31 04:47:50;;;;;;;4.45;2.55;;;;;;;;;;5013138;28;20025;-70
2023/10/31 04:50:15;;;;;;;6.15;1.95;;;;;;;;;;5013671;28;20387;-71
2023/10/31 04:52:40;;;;;;;5.60;2.55;;;;;;;;;;5013410;28;20099;-70
2023/10/31 04:55:06;;;;;;;7.63;2.00;;;;;;;;;;5013468;28;20079;-70
2023/10/31 04:57:31;;;;;;;6.13;2.00;;;;;;;;;;5013620;28;20033;-71
2023/10/31 04:59:58;;;;;;;7.75;1.92;;;;;;;;;;5012798;28;20021;-70
2023/10/31 05:02:23;;;;;;;5.82;2.30;;;;;;;;;;5012983;28;20036;-70
2023/10/31 05:04:52;;;;;;;6.88;2.00;;;;;;;;;;5013169;28;20026;-71
2023/10/31 05:07:18;;;;;;;2.97;2.03;;;;;;;;;;5013465;28;20120;-70
2023/10/31 05:09:43;;;;;;;6.03;2.33;;;;;;;;;;4995245;28;20064;-70
2023/10/31 05:12:09;;;;;;;5.47;2.03;;;;;;;;;;5013548;28;20488;-70
2023/10/31 05:14:34;;;;;;;4.40;1.70;;;;;;;;;;5013045;28;20028;-70
2023/10/31 05:16:59;;;;;;;7.25;1.77;;;;;;;;;;5013201;28;20026;-70
2023/10/31 05:19:25;;;;;;;7.13;1.80;;;;;;;;;;5013173;28;20081;-71
2023/10/31 05:21:51;;;;;;;3.33;1.58;;;;;;;;;;5013375;28;20566;-70
2023/10/31 05:24:16;;;;;;;6.20;1.73;;;;;;;;;;4994815;28;20025;-70
2023/10/31 05:26:42;;;;;;;2.90;1.75;;;;;;;;;;5013289;28;20037;-70
2023/10/31 05:29:08;;;;;;;4.05;1.92;;;;;;;;;;5011866;28;20028;-70
2023/10/31 05:31:33;;;;;;;5.25;1.55;;;;;;;;;;4995733;28;20390;-70
2023/10/31 05:33:58;;;;;;;6.93;1.80;;;;;;;;;;5012773;28;20554;-70
2023/10/31 05:36:25;;;;;;;4.25;1.80;;;;;;;;;;5012477;28;20022;-70
2023/10/31 05:38:50;;;;;;;3.47;1.77;;;;;;;;;;4995559;28;20121;-70
2023/10/31 05:41:15;;;;;;;3.40;1.83;;;;;;;;;;5013086;28;20109;-70
2023/10/31 05:43:41;;;;;;;6.75;1.70;;;;;;;;;;5012364;28;20486;-70
2023/10/31 05:46:10;;;;;;;3.75;2.28;;;;;;;;;;4995835;28;20030;-70
2023/10/31 05:48:35;;;;;;;7.20;2.90;;;;;;;;;;4995896;28;20030;-70
2023/10/31 05:51:00;;;;;;;5.95;2.38;;;;;;;;;;5012513;28;20030;-70
2023/10/31 05:53:25;;;;;;;5.63;2.10;;;;;;;;;;5012672;28;20052;-70
2023/10/31 05:55:51;;;;;;;7.22;2.50;;;;;;;;;;5012960;28;20033;-70
2023/10/31 05:58:16;;;;;;;8.43;2.80;;;;;;;;;;5012866;28;20029;-70
2023/10/31 06:00:41;;;;;;;9.52;2.63;;;;;;;;;;5012669;28;20034;-70
2023/10/31 06:03:08;;;;;;;4.25;1.88;;;;;;;;;;5008199;28;20030;-70
2023/10/31 06:05:34;;;;;;;3.75;2.20;;;;;;;;;;4992299;28;20394;-70
2023/10/31 06:08:00;;;;;;;4.03;1.83;;;;;;;;;;4981100;28;20080;-70
2023/10/31 06:10:25;;;;;;;6.18;2.63;;;;;;;;;;5008331;28;20513;-70
2023/10/31 06:12:50;;;;;;;4.90;2.85;;;;;;;;;;5012507;28;20021;-70
2023/10/31 06:15:15;;;;;;;5.43;2.22;;;;;;;;;;5015801;28;20395;-70
2023/10/31 06:17:41;;;;;;;2.97;2.15;;;;;;;;;;5015883;28;20026;-70
2023/10/31 06:20:08;;;;;;;2.78;1.63;;;;;;;;;;5016032;28;20022;-70
2023/10/31 06:22:33;;;;;;;3.67;1.77;;;;;;;;;;5015929;28;20033;-70
2023/10/31 06:24:59;;;;;;;2.70;1.65;;;;;;;;;;5016041;28;20072;-70
2023/10/31 06:27:24;;;;;;;2.35;1.58;;;;;;;;;;5011017;28;20118;-70
2023/10/31 06:29:49;;;;;;;3.28;1.73;;;;;;;;;;4996537;28;20050;-70
2023/10/31 06:32:15;;;;;;;2.85;1.60;;;;;;;;;;4996328;28;20022;-71
2023/10/31 06:34:40;;;;;;;2.25;1.35;;;;;;;;;;4999199;28;20121;-70
2023/10/31 06:37:05;;;;;;;2.70;1.48;;;;;;;;;;4995706;28;20077;-70
2023/10/31 06:39:32;;;;;;;2.20;1.85;;;;;;;;;;5007082;28;20088;-70
2023/10/31 06:41:57;;;;;;;3.72;1.23;;;;;;;;;;5016210;28;20029;-70
2023/10/31 06:44:23;;;;;;;2.25;1.30;;;;;;;;;;5001318;28;20483;-71
2023/10/31 06:46:48;;;;;;;4.93;1.70;;;;;;;;;;5015735;28;20038;-70
2023/10/31 06:49:13;;;;;;;2.97;2.00;;;;;;;;;;5015819;28;20026;-70
2023/10/31 06:51:38;;;;;;;3.00;1.60;;;;;;;;;;4997932;28;20025;-70
2023/10/31 06:54:04;;;;;;;2.55;1.52;;;;;;;;;;5015006;28;20522;-70
2023/10/31 06:56:29;;;;;;;4.15;1.77;;;;;;;;;;5015835;28;20029;-70
2023/10/31 06:58:54;;;;;;;2.80;1.80;;;;;;;;;;5013897;28;20026;-70
2023/10/31 07:01:20;;;;;;;2.65;1.75;;;;;;;;;;4995691;28;20084;-70
2023/10/31 07:03:46;;;;;;;2.72;1.60;;;;;;;;;;5015413;28;20108;-70
2023/10/31 07:06:12;;;;;;;2.15;1.30;;;;;;;;;;4997077;28;20026;-70
2023/10/31 07:08:37;;;;;;;2.30;1.27;;;;;;;;;;4998446;28;20029;-69
2023/10/31 07:11:02;;;;;;;2.03;1.52;;;;;;;;;;4995503;28;20026;-69
2023/10/31 07:13:28;;;;;;;3.30;1.35;;;;;;;;;;5011431;28;20018;-69
2023/10/31 07:15:53;;;;;;;1.52;1.02;;;;;;;;;;5014536;28;20438;-69
2023/10/31 07:18:18;;;;;;;1.83;1.10;;;;;;;;;;5015013;28;20022;-69
2023/10/31 07:20:43;;;;;;;1.65;1.13;;;;;;;;;;5015071;28;20391;-69
2023/10/31 07:23:09;;;;;;;2.20;1.33;;;;;;;;;;5014912;28;20025;-69
2023/10/31 07:25:34;;;;;;;1.05;0.98;;;;;;;;;;5014533;28;20025;-69
2023/10/31 07:27:59;;;;;;;2.35;1.30;;;;;;;;;;5014220;28;20037;-69
2023/10/31 07:30:25;;;;;;;2.00;1.25;;;;;;;;;;4997434;28;20018;-69
2023/10/31 07:32:50;;;;;;;1.85;1.30;;;;;;;;;;5014638;28;20040;-69
2023/10/31 07:35:15;;;;;;;1.83;1.15;;;;;;;;;;5014912;28;20041;-69
2023/10/31 07:37:40;;;;;;;6.47;1.13;;;;;;;;;;5014580;28;20470;-69
2023/10/31 07:40:06;;;;;;;2.38;1.20;;;;;;;;;;5013972;28;20049;-69
2023/10/31 07:42:31;;;;;;;2.42;1.38;;;;;;;;;;5014677;28;20033;-69
2023/10/31 07:44:57;;;;;;;2.10;1.50;;;;;;;;;;5014465;28;20037;-69
2023/10/31 07:47:22;;;;;;;1.80;1.40;;;;;;;;;;5014363;28;20022;-69
2023/10/31 07:49:48;;;;;;;2.38;1.33;;;;;;;;;;5014360;28;20014;-69
2023/10/31 07:52:13;;;;;;;2.80;1.40;;;;;;;;;;5012739;28;20130;-69
2023/10/31 07:54:40;;;;;;;2.30;1.50;;;;;;;;;;5037686;23;20140;-69
2023/10/31 07:57:06;;;;;;;1.70;1.23;;;;;;;;;;5054140;28;20417;-69
2023/10/31 07:59:33;;;;;;;4.20;1.52;;;;;;;;;;5035884;28;20017;-69
2023/10/31 08:01:59;;;;;;;2.40;1.50;;;;;;;;;;5035628;28;20027;-69
2023/10/31 08:04:25;;;;;;;2.05;1.25;;;;;;;;;;5053411;28;20020;-71
2023/10/31 08:06:50;;;;;;;2.80;1.85;;;;;;;;;;5042143;28;20044;-70
2023/10/31 08:09:16;;;;;;;4.50;2.97;;;;;;;;;;5033241;28;20112;-70
2023/10/31 08:11:41;;;;;;;3.55;1.98;;;;;;;;;;5041354;28;20036;-70
2023/10/31 08:14:06;;;;;;;5.32;2.15;;;;;;;;;;5033756;28;20095;-70
2023/10/31 08:16:32;;;;;;;6.10;2.90;;;;;;;;;;5037325;28;20438;-70
2023/10/31 08:18:57;;;;;;;3.13;2.17;;;;;;;;;;5035337;28;20032;-69
2023/10/31 08:21:22;;;;;;;3.97;2.70;;;;;;;;;;5033499;28;20068;-69
2023/10/31 08:23:47;;;;;;;2.72;2.00;;;;;;;;;;5046108;28;20028;-70
2023/10/31 08:26:13;;;;;;;5.60;1.90;;;;;;;;;;5043236;28;20030;-70
2023/10/31 08:28:39;;;;;;;3.05;1.70;;;;;;;;;;5015514;28;20052;-70
2023/10/31 08:31:04;;;;;;;4.05;2.33;;;;;;;;;;5045391;28;20069;-70
2023/10/31 08:33:29;;;;;;;8.13;3.20;;;;;;;;;;5035267;28;20060;-71
2023/10/31 08:35:55;;;;;;;5.07;3.22;;;;;;;;;;5052571;28;20029;-71
2023/10/31 08:38:20;;;;;;;5.35;3.03;;;;;;;;;;5052329;28;20029;-71
2023/10/31 08:40:45;;;;;;;4.35;3.08;;;;;;;;;;5053152;28;20029;-71
2023/10/31 08:43:10;;;;;;;3.83;2.20;;;;;;;;;;5036072;28;20502;-70
2023/10/31 08:45:36;;;;;;;14.23;6.55;;;;;;;;;;5033593;28;20061;-71
2023/10/31 08:48:01;;;;;;;5.03;3.20;;;;;;;;;;5037104;28;20474;-71
2023/10/31 08:50:26;;;;;;;4.53;2.97;;;;;;;;;;5018813;28;20372;-71
2023/10/31 08:52:52;;;;;;;5.43;3.22;;;;;;;;;;5033246;28;20025;-71
2023/10/31 08:55:18;;;;;;;7.22;3.10;;;;;;;;;;5029280;28;20059;-71
2023/10/31 08:57:43;;;;;;;7.25;3.15;;;;;;;;;;5052752;28;20064;-71
2023/10/31 09:00:08;;;;;;;6.15;3.70;;;;;;;;;;5053301;28;20017;-71
2023/10/31 09:02:34;;;;;;;7.65;3.65;;;;;;;;;;5053283;28;20386;-71
2023/10/31 09:04:59;;;;;;;19.75;7.05;;;;;;;;;;5053009;28;20029;-70
2023/10/31 09:07:24;;;;;;;25.58;8.68;;;;;;;;;;5044771;28;20034;-70
2023/10/31 09:09:50;;;;;;;13.60;5.40;;;;;;;;;;5032374;28;20014;-70
2023/10/31 09:12:15;;;;;;;17.60;7.28;;;;;;;;;;5034189;28;20021;-71
2023/10/31 09:14:42;;;;;;;9.32;4.07;;;;;;;;;;5035233;28;20453;-70
2023/10/31 09:17:07;;;;;;;14.95;5.60;;;;;;;;;;5032802;28;20104;-70
2023/10/31 09:19:32;;;;;;;27.20;7.93;;;;;;;;;;5041137;28;20413;-71
2023/10/31 09:21:58;;;;;;;9.82;3.83;;;;;;;;;;5032650;28;20048;-71
2023/10/31 09:24:23;;;;;;;14.48;4.35;;;;;;;;;;5039028;28;20033;-72
2023/10/31 09:26:49;;;;;;;40.97;10.80;;;;;;;;;;5052935;28;20070;-72
2023/10/31 09:29:14;;;;;;;37.67;10.63;;;;;;;;;;5034509;28;20029;-72
2023/10/31 09:31:39;;;;;;;7.63;3.38;;;;;;;;;;5052967;28;20059;-71
2023/10/31 09:34:05;;;;;;;23.30;7.65;;;;;;;;;;5052565;28;20098;-71
2023/10/31 09:36:36;;;;;;;34.85;8.48;;;;;;;;;;5052801;28;20120;-71
2023/10/31 09:39:02;;;;;;;16.40;4.55;;;;;;;;;;5035263;28;20474;-71
2023/10/31 09:41:27;;;;;;;19.55;4.85;;;;;;;;;;5052646;28;20104;-72
2023/10/31 09:43:53;;;;;;;11.73;3.22;;;;;;;;;;5052051;28;20024;-71
2023/10/31 09:46:18;;;;;;;32.88;8.40;;;;;;;;;;5052587;28;20032;-71
2023/10/31 09:48:43;;;;;;;12.93;4.85;;;;;;;;;;5054983;28;20431;-71
2023/10/31 09:51:10;;;;;;;9.88;3.30;;;;;;;;;;5056607;28;20060;-71
2023/10/31 09:53:37;;;;;;;16.17;6.10;;;;;;;;;;5038616;28;20036;-71
2023/10/31 09:56:03;;;;;;;17.17;5.30;;;;;;;;;;5021778;28;20025;-71
2023/10/31 09:58:28;;;;;;;16.80;5.70;;;;;;;;;;5038305;28;22008;-71
2023/10/31 10:00:54;;;;;;;9.85;3.88;;;;;;;;;;5038513;28;20047;-71
2023/10/31 10:03:20;;;;;;;11.18;5.05;;;;;;;;;;5056438;28;20116;-71
2023/10/31 10:05:47;;;;;;;37.83;10.13;;;;;;;;;;5055862;28;20490;-71
2023/10/31 10:08:12;;;;;;;8.57;3.15;;;;;;;;;;5056254;28;20112;-71
2023/10/31 10:10:37;;;;;;;8.73;3.58;;;;;;;;;;5055691;28;20052;-72
2023/10/31 10:13:03;;;;;;;14.57;6.00;;;;;;;;;;5056174;28;20470;-71
2023/10/31 10:15:28;;;;;;;13.18;5.85;;;;;;;;;;5037297;28;20025;-72
2023/10/31 10:17:54;;;;;;;5.70;3.13;;;;;;;;;;5038218;28;20050;-72
2023/10/31 10:20:19;;;;;;;9.05;4.32;;;;;;;;;;5042545;28;20128;-71
2023/10/31 10:22:45;;;;;;;7.93;3.55;;;;;;;;;;5056006;28;20104;-71
2023/10/31 10:25:15;;;;;;;5.63;2.15;;;;;;;;;;5056023;28;20017;-72
2023/10/31 10:27:41;;;;;;;5.05;2.75;;;;;;;;;;5021790;28;20020;-71
2023/10/31 10:30:07;;;;;;;6.45;2.97;;;;;;;;;;5038058;28;20430;-72
2023/10/31 10:32:33;;;;;;;3.97;2.13;;;;;;;;;;5038014;28;20031;-71
2023/10/31 10:34:58;;;;;;;5.88;3.70;;;;;;;;;;5055103;28;20107;-72
2023/10/31 10:37:25;;;;;;;6.30;2.67;;;;;;;;;;5055672;28;20025;-72
2023/10/31 10:39:55;;;;;;;5.60;2.58;;;;;;;;;;5055453;28;20036;-71
2023/10/31 10:42:27;;;;;;;9.93;4.20;;;;;;;;;;5037964;28;20032;-71
2023/10/31 10:44:54;;;;;;;6.28;2.53;;;;;;;;;;5035179;28;20018;-72
2023/10/31 10:47:19;;;;;;;6.53;2.50;;;;;;;;;;5017647;28;20026;-71
2023/10/31 10:49:45;;;;;;;6.47;2.88;;;;;;;;;;5032954;28;20061;-71
2023/10/31 10:52:28;;;;;;;5.82;2.17;;;;;;;;;;5037178;28;20036;-71
2023/10/31 10:55:11;;;;;;;7.00;3.00;;;;;;;;;;5037428;28;20043;-71
2023/10/31 10:58:12;;;;;;;6.22;2.35;;;;;;;;;;5020812;28;20086;-71
2023/10/31 11:00:39;;;;;;;3.83;1.70;;;;;;;;;;4994431;28;20552;-71
2023/10/31 11:03:05;;;;;;;5.43;2.25;;;;;;;;;;5037605;28;20037;-71
2023/10/31 11:05:31;;;;;;;2.80;1.83;;;;;;;;;;5037190;28;20036;-71
2023/10/31 11:07:57;;;;;;;2.55;1.50;;;;;;;;;;5054848;28;20032;-71
2023/10/31 11:10:22;;;;;;;1.90;1.77;;;;;;;;;;5037217;28;20049;-71
2023/10/31 11:12:48;;;;;;;2.33;1.65;;;;;;;;;;5036546;28;20021;-71
2023/10/31 11:15:16;;;;;;;1.90;1.33;;;;;;;;;;5054607;28;20510;-72
2023/10/31 11:17:45;;;;;;;1.65;1.55;;;;;;;;;;5037235;28;20104;-71
2023/10/31 11:20:15;;;;;;;2.10;1.30;;;;;;;;;;5036983;28;20100;-72
2023/10/31 11:22:43;;;;;;;3.38;1.73;;;;;;;;;;5037021;28;20511;-72
2023/10/31 11:25:11;;;;;;;3.17;2.05;;;;;;;;;;5036704;28;20044;-73
2023/10/31 11:27:37;;;;;;;2.60;1.90;;;;;;;;;;5036738;28;20028;-73
2023/10/31 11:30:05;;;;;;;2.47;1.67;;;;;;;;;;5017049;28;20025;-72
2023/10/31 11:32:32;;;;;;;2.53;1.60;;;;;;;;;;5034312;28;20017;-71
2023/10/31 11:34:57;;;;;;;2.53;1.52;;;;;;;;;;5033462;28;20033;-72
2023/10/31 11:37:26;;;;;;;2.58;2.38;;;;;;;;;;5036072;28;20028;-72
2023/10/31 11:40:22;;;;;;;3.03;1.40;;;;;;;;;;5054151;28;20096;-72
2023/10/31 11:42:54;;;;;;;3.40;2.13;;;;;;;;;;5024250;28;20032;-71
2023/10/31 11:45:47;;;;;;;3.78;2.22;;;;;;;;;;5036136;28;20047;-71
2023/10/31 11:48:13;;;;;;;5.03;2.50;;;;;;;;;;5020690;28;20029;-71
2023/10/31 11:50:38;;;;;;;3.83;2.30;;;;;;;;;;5036485;28;20066;-71
2023/10/31 11:53:05;;;;;;;3.42;1.90;;;;;;;;;;5053926;28;20147;-72
2023/10/31 11:55:36;;;;;;;3.67;2.45;;;;;;;;;;5035886;28;20039;-71
2023/10/31 11:58:23;;;;;;;4.00;2.35;;;;;;;;;;5053758;28;20016;-71
2023/10/31 12:00:50;;;;;;;5.47;2.80;;;;;;;;;;5053785;28;20029;-71
2023/10/31 12:03:20;;;;;;;3.95;2.50;;;;;;;;;;5035733;28;20040;-71
2023/10/31 12:05:56;;;;;;;5.88;3.20;;;;;;;;;;5053104;28;20028;-74
2023/10/31 12:08:26;;;;;;;5.15;2.83;;;;;;;;;;5036163;28;20025;-71
2023/10/31 12:10:51;;;;;;;9.82;2.55;;;;;;;;;;5035932;28;20166;-71
2023/10/31 12:13:17;;;;;;;3.67;1.77;;;;;;;;;;5035836;28;20573;-71
2023/10/31 12:15:52;;;;;;;2.90;2.03;;;;;;;;;;5053839;28;20029;-71
2023/10/31 12:18:18;;;;;;;5.78;2.45;;;;;;;;;;5035653;28;20027;-71
2023/10/31 12:20:50;;;;;;;3.38;2.05;;;;;;;;;;5035465;28;20033;-71
2023/10/31 12:23:17;;;;;;;3.53;2.03;;;;;;;;;;5035632;28;20021;-71
2023/10/31 12:25:49;;;;;;;4.75;2.40;;;;;;;;;;5035790;28;20029;-71
2023/10/31 12:28:22;;;;;;;2.45;2.08;;;;;;;;;;5052863;28;20016;-71
2023/10/31 12:30:49;;;;;;;9.00;3.15;;;;;;;;;;5035339;28;20078;-71
2023/10/31 12:33:15;;;;;;;6.65;3.63;;;;;;;;;;5053329;28;20065;-71
2023/10/31 12:35:42;;;;;;;3.58;1.85;;;;;;;;;;5035937;28;20024;-71
2023/10/31 12:38:10;;;;;;;4.90;1.65;;;;;;;;;;5053131;28;20028;-70
2023/10/31 12:40:37;;;;;;;5.88;1.98;;;;;;;;;;5035469;28;20041;-71
2023/10/31 12:43:02;;;;;;;5.57;1.50;;;;;;;;;;5035748;28;20554;-71
2023/10/31 12:45:28;;;;;;;2.83;1.40;;;;;;;;;;5053232;28;20025;-70
2023/10/31 12:48:12;;;;;;;3.08;1.42;;;;;;;;;;5035620;28;20036;-70
2023/10/31 12:50:39;;;;;;;1.52;1.35;;;;;;;;;;5053163;28;20013;-71
2023/10/31 12:53:05;;;;;;;3.00;2.00;;;;;;;;;;5035502;28;20025;-70
2023/10/31 12:55:38;;;;;;;4.00;1.90;;;;;;;;;;5052878;28;20111;-70
2023/10/31 12:58:03;;;;;;;2.85;1.80;;;;;;;;;;5034564;28;20036;-71
2023/10/31 13:00:33;;;;;;;2.08;1.42;;;;;;;;;;5052839;28;20403;-70
2023/10/31 13:03:00;;;;;;;5.07;2.05;;;;;;;;;;5052242;28;20120;-70
2023/10/31 13:05:26;;;;;;;4.00;1.40;;;;;;;;;;5035052;28;20017;-71
2023/10/31 13:07:52;;;;;;;2.42;1.42;;;;;;;;;;5052823;28;20378;-70
2023/10/31 13:10:19;;;;;;;3.58;1.38;;;;;;;;;;5034517;28;20021;-71
2023/10/31 13:12:47;;;;;;;4.45;1.50;;;;;;;;;;5035240;28;20078;-70
2023/10/31 13:15:18;;;;;;;6.38;2.72;;;;;;;;;;5052630;28;20024;-70
2023/10/31 13:17:44;;;;;;;15.05;1.90;;;;;;;;;;5018722;28;20025;-70
2023/10/31 13:20:10;;;;;;;3.17;1.52;;;;;;;;;;5034942;28;20393;-70
2023/10/31 13:22:39;;;;;;;3.58;1.75;;;;;;;;;;5052615;28;20508;-70
2023/10/31 13:25:07;;;;;;;3.30;1.55;;;;;;;;;;5039135;28;20541;-70
2023/10/31 13:27:35;;;;;;;4.28;1.73;;;;;;;;;;5056672;28;20029;-70
2023/10/31 13:30:04;;;;;;;4.45;2.00;;;;;;;;;;5056474;28;20389;-70
2023/10/31 13:32:30;;;;;;;1.90;1.52;;;;;;;;;;5056322;28;20031;-71
2023/10/31 13:34:55;;;;;;;2.80;1.33;;;;;;;;;;5041792;28;20493;-71
2023/10/31 13:37:21;;;;;;;2.17;1.65;;;;;;;;;;5036539;28;20022;-71
2023/10/31 13:39:46;;;;;;;2.30;0.98;;;;;;;;;;5035957;28;20517;-70
2023/10/31 13:42:11;;;;;;;1.33;1.23;;;;;;;;;;5019029;28;20032;-70
2023/10/31 13:44:37;;;;;;;4.20;1.35;;;;;;;;;;5054909;28;20054;-70
2023/10/31 13:47:03;;;;;;;1.73;1.45;;;;;;;;;;5038726;28;20029;-70
2023/10/31 13:49:29;;;;;;;2.53;1.10;;;;;;;;;;5056344;28;20474;-70
2023/10/31 13:51:54;;;;;;;4.43;1.92;;;;;;;;;;5038389;28;20025;-70
2023/10/31 13:54:19;;;;;;;3.47;1.90;;;;;;;;;;5055479;28;20028;-70
2023/10/31 13:56:45;;;;;;;5.18;2.20;;;;;;;;;;5163660;22;20045;-69
2023/10/31 13:59:11;;;;;;;6.22;1.40;;;;;;;;;;5018301;28;20433;-69
2023/10/31 14:01:36;;;;;;;1.40;1.13;;;;;;;;;;5018850;28;20022;-69
2023/10/31 14:04:02;;;;;;;4.20;2.10;;;;;;;;;;5018581;28;20026;-69
2023/10/31 14:06:30;;;;;;;0.98;0.85;;;;;;;;;;5035554;28;20136;-69
2023/10/31 14:08:56;;;;;;;1.90;1.40;;;;;;;;;;5036457;28;20103;-69
2023/10/31 14:11:21;;;;;;;3.60;2.30;;;;;;;;;;5018398;28;20442;-69
2023/10/31 14:13:46;;;;;;;2.40;1.17;;;;;;;;;;4998868;28;20061;-69
2023/10/31 14:16:12;;;;;;;1.73;1.13;;;;;;;;;;5015867;28;20048;-69
2023/10/31 14:18:37;;;;;;;2.08;1.52;;;;;;;;;;5018235;28;20030;-69
2023/10/31 14:21:03;;;;;;;1.05;0.90;;;;;;;;;;5036119;28;20025;-69
2023/10/31 14:23:29;;;;;;;3.22;1.35;;;;;;;;;;5036205;28;20021;-69
2023/10/31 14:25:54;;;;;;;2.88;1.50;;;;;;;;;;5017749;28;20022;-69
2023/10/31 14:28:19;;;;;;;3.80;1.00;;;;;;;;;;5018175;28;20029;-69
2023/10/31 14:30:45;;;;;;;1.02;0.90;;;;;;;;;;5018127;28;20364;-69
2023/10/31 14:33:10;;;;;;;2.47;1.05;;;;;;;;;;5013168;28;20113;-69